Time;durP1;ratioP1;P1;durP2;ratioP2;P2;SDS_P1;SDS_P2;PMS_P1;PMS_P2;Temp;Humidity;BMP_temperature;BMP_pressure;BME280_temperature;BME280_humidity;BME280_pressure;Samples;Min_cycle;Max_cycle;Signal;HPM_P1;HPM_P2
2021/10/05 00:00:19;;;;;;;5.97;1.38;;;;;;;11.98;76.94;101117.47;5054184;28;20032;-67
2021/10/05 00:02:44;;;;;;;7.32;1.40;;;;;;;12.03;76.90;101117.72;5054029;28;20029;-66
2021/10/05 00:05:10;;;;;;;9.80;1.75;;;;;;;12.06;77.08;101112.16;5054294;28;20104;-67
2021/10/05 00:07:35;;;;;;;5.70;1.20;;;;;;;12.03;77.06;101111.72;5053632;28;20142;-67
2021/10/05 00:10:01;;;;;;;5.45;1.73;;;;;;;12.01;77.14;101113.69;5053703;28;20040;-67
2021/10/05 00:12:26;;;;;;;10.50;1.42;;;;;;;11.98;77.38;101116.66;5036021;28;20113;-67
2021/10/05 00:14:52;;;;;;;7.03;2.17;;;;;;;11.92;77.31;101113.81;5054088;28;20024;-67
2021/10/05 00:17:18;;;;;;;6.53;1.80;;;;;;;11.95;77.34;101116.03;5036036;28;20104;-67
2021/10/05 00:19:43;;;;;;;7.47;1.45;;;;;;;11.95;77.42;101110.06;5053868;28;20123;-67
2021/10/05 00:22:09;;;;;;;5.07;1.38;;;;;;;11.89;77.71;101101.25;5053742;28;20060;-67
2021/10/05 00:24:34;;;;;;;8.23;1.48;;;;;;;11.94;77.21;101113.66;5053715;28;20028;-68
2021/10/05 00:26:59;;;;;;;5.25;1.52;;;;;;;11.91;77.33;101104.47;5054005;28;20028;-67
2021/10/05 00:29:24;;;;;;;5.72;1.55;;;;;;;11.88;77.30;101098.84;5053641;28;20025;-67
2021/10/05 00:31:50;;;;;;;3.55;1.38;;;;;;;11.78;77.74;101088.78;5053618;28;20021;-68
2021/10/05 00:34:15;;;;;;;4.97;1.60;;;;;;;11.77;78.05;101084.59;5054097;28;20025;-68
2021/10/05 00:36:42;;;;;;;3.88;1.40;;;;;;;11.74;78.10;101078.00;5053590;28;20077;-69
2021/10/05 00:39:07;;;;;;;5.20;1.45;;;;;;;11.78;78.16;101082.81;5053523;28;20056;-69
2021/10/05 00:41:33;;;;;;;8.50;1.70;;;;;;;11.67;78.38;101066.00;5053396;28;20474;-68
2021/10/05 00:44:00;;;;;;;4.78;1.77;;;;;;;11.65;77.98;101075.72;5053440;28;20029;-69
2021/10/05 00:46:27;;;;;;;3.38;1.45;;;;;;;11.64;78.28;101069.75;5053722;28;20404;-68
2021/10/05 00:48:56;;;;;;;7.78;1.65;;;;;;;11.72;77.80;101066.22;5053911;28;20490;-69
2021/10/05 00:51:24;;;;;;;5.47;1.45;;;;;;;11.66;77.95;101069.56;5053577;28;20108;-68
2021/10/05 00:53:52;;;;;;;5.40;1.65;;;;;;;11.64;77.86;101061.97;5053209;28;20128;-68
2021/10/05 00:56:17;;;;;;;4.35;1.58;;;;;;;11.60;78.20;101060.75;5053283;28;20036;-69
2021/10/05 00:58:43;;;;;;;5.93;1.70;;;;;;;11.62;77.64;101058.78;5053287;28;20083;-69
2021/10/05 01:01:09;;;;;;;5.18;1.55;;;;;;;11.56;77.85;101056.94;5035184;28;20391;-68
2021/10/05 01:03:34;;;;;;;7.28;1.42;;;;;;;11.62;77.66;101056.19;5035209;28;20028;-68
2021/10/05 01:05:59;;;;;;;8.73;1.70;;;;;;;11.61;77.58;101051.22;5053264;28;20075;-68
2021/10/05 01:08:26;;;;;;;5.28;1.70;;;;;;;11.63;77.37;101042.28;5053086;28;20070;-68
2021/10/05 01:10:51;;;;;;;5.13;1.50;;;;;;;11.63;77.84;101033.72;5053275;28;20059;-68
2021/10/05 01:13:16;;;;;;;8.80;1.60;;;;;;;11.69;77.61;101036.34;5053475;28;20319;-68
2021/10/05 01:15:42;;;;;;;5.93;1.30;;;;;;;11.72;76.82;101025.59;5053049;28;20467;-68
2021/10/05 01:18:07;;;;;;;3.40;1.42;;;;;;;11.81;77.11;101025.47;5053145;28;20032;-68
2021/10/05 01:20:51;;;;;;;9.27;1.98;;;;;;;11.82;76.82;101033.03;5053085;28;20025;-68
2021/10/05 01:23:17;;;;;;;6.82;1.65;;;;;;;11.80;77.06;101023.88;5053552;28;20029;-68
2021/10/05 01:25:42;;;;;;;5.82;1.80;;;;;;;11.84;76.48;101032.84;5053064;28;20029;-68
2021/10/05 01:28:08;;;;;;;5.30;1.48;;;;;;;11.82;76.56;101020.09;5053577;28;20032;-68
2021/10/05 01:30:33;;;;;;;7.00;1.70;;;;;;;11.66;77.15;101016.00;5053294;28;20100;-68
2021/10/05 01:32:58;;;;;;;8.88;1.50;;;;;;;11.64;77.27;101020.56;5052942;28;20051;-68
2021/10/05 01:35:24;;;;;;;10.18;2.05;;;;;;;11.68;77.09;101011.44;5035113;28;20024;-68
2021/10/05 01:37:49;;;;;;;5.07;1.70;;;;;;;11.63;76.73;101010.41;5052956;28;20451;-70
2021/10/05 01:40:14;;;;;;;7.10;1.40;;;;;;;11.57;77.56;101009.38;5052954;28;20040;-69
2021/10/05 01:42:40;;;;;;;6.93;1.58;;;;;;;11.59;77.13;101009.97;5052838;28;20055;-68
2021/10/05 01:45:07;;;;;;;4.18;1.60;;;;;;;11.62;77.03;101013.97;5053431;28;20418;-68
2021/10/05 01:47:33;;;;;;;3.90;1.40;;;;;;;11.59;77.24;101009.97;5052906;28;20056;-68
2021/10/05 01:49:58;;;;;;;9.60;1.95;;;;;;;11.48;77.26;101000.16;5053092;28;20482;-68
2021/10/05 01:52:23;;;;;;;7.03;1.60;;;;;;;11.49;77.57;100997.38;5052749;28;20104;-68
2021/10/05 01:54:49;;;;;;;5.10;1.70;;;;;;;11.53;77.13;100990.81;5052556;28;20487;-68
2021/10/05 01:57:14;;;;;;;7.70;1.52;;;;;;;11.52;77.22;100983.25;5034967;28;20029;-68
2021/10/05 01:59:40;;;;;;;4.90;1.67;;;;;;;11.50;77.38;100988.59;5052706;28;20025;-68
2021/10/05 02:02:05;;;;;;;8.05;1.73;;;;;;;11.45;77.62;100982.38;5034717;28;20033;-69
2021/10/05 02:04:30;;;;;;;6.55;1.60;;;;;;;11.42;77.95;100973.22;5052674;28;20025;-68
2021/10/05 02:06:55;;;;;;;5.97;1.50;;;;;;;11.34;77.80;100969.97;5052676;28;20025;-68
2021/10/05 02:09:21;;;;;;;3.13;1.40;;;;;;;11.35;78.09;100974.94;5052729;28;20021;-68
2021/10/05 02:11:46;;;;;;;4.63;1.60;;;;;;;11.34;77.80;100975.94;5053562;28;20025;-69
2021/10/05 02:14:12;;;;;;;4.82;1.50;;;;;;;11.33;77.91;100968.38;5056471;28;20021;-68
2021/10/05 02:16:37;;;;;;;4.18;1.70;;;;;;;11.34;77.86;100965.59;5056463;28;20103;-68
2021/10/05 02:19:04;;;;;;;3.05;1.60;;;;;;;11.33;77.97;100958.00;5056074;28;20151;-69
2021/10/05 02:21:29;;;;;;;3.50;1.38;;;;;;;11.22;78.01;100965.31;5038131;28;20024;-68
2021/10/05 02:26:40;;;;;;;7.90;1.83;;;;;;;11.30;77.79;100959.97;5056808;28;20360;-68
2021/10/05 02:29:05;;;;;;;6.35;1.70;;;;;;;11.34;77.96;100944.09;5055942;28;20103;-69
2021/10/05 02:31:32;;;;;;;9.52;1.60;;;;;;;11.30;77.55;100944.47;5055953;28;20118;-68
2021/10/05 02:33:57;;;;;;;3.92;1.52;;;;;;;11.37;77.62;100935.97;5055832;28;20055;-68
2021/10/05 02:36:23;;;;;;;4.50;1.55;;;;;;;11.41;77.20;100937.97;5055705;28;20426;-70
2021/10/05 02:38:48;;;;;;;8.48;1.70;;;;;;;11.37;77.53;100920.44;5056121;28;20028;-68
2021/10/05 02:41:14;;;;;;;4.32;1.60;;;;;;;11.40;77.07;100922.66;5055918;28;20456;-67
2021/10/05 02:43:39;;;;;;;5.82;1.55;;;;;;;11.39;77.02;100908.09;5037734;28;20028;-68
2021/10/05 02:46:04;;;;;;;5.97;1.60;;;;;;;11.38;77.17;100896.94;5055653;28;20024;-66
2021/10/05 02:48:30;;;;;;;3.78;1.42;;;;;;;11.43;77.10;100899.78;5055606;28;20104;-68
2021/10/05 02:50:55;;;;;;;5.85;1.88;;;;;;;11.38;77.27;100896.16;5055557;28;20024;-68
2021/10/05 02:53:20;;;;;;;4.95;1.50;;;;;;;11.46;76.94;100891.63;5055336;28;20048;-69
2021/10/05 02:55:47;;;;;;;4.47;1.77;;;;;;;11.38;77.18;100885.81;5055407;28;20543;-68
2021/10/05 02:58:14;;;;;;;3.10;1.58;;;;;;;11.41;77.16;100881.03;5055931;28;20377;-68
2021/10/05 03:00:40;;;;;;;11.30;1.60;;;;;;;11.37;77.63;100881.63;5055838;28;20032;-68
2021/10/05 03:03:05;;;;;;;5.63;1.70;;;;;;;11.38;77.30;100876.25;5037305;28;20025;-68
2021/10/05 03:05:30;;;;;;;6.38;1.60;;;;;;;11.33;77.18;100870.03;5055263;28;20032;-68
2021/10/05 03:07:55;;;;;;;4.20;1.55;;;;;;;11.30;77.21;100861.66;5055192;28;20025;-68
2021/10/05 03:10:21;;;;;;;6.03;1.60;;;;;;;11.23;77.38;100866.00;5055135;28;20025;-68
2021/10/05 03:12:46;;;;;;;6.78;1.60;;;;;;;11.18;77.74;100857.22;5055354;28;20155;-69
2021/10/05 03:15:11;;;;;;;6.82;1.50;;;;;;;11.17;77.99;100860.81;5037173;28;20024;-69
2021/10/05 03:17:36;;;;;;;3.28;1.50;;;;;;;11.17;78.12;100847.88;5055010;28;20387;-69
2021/10/05 03:20:02;;;;;;;6.57;1.88;;;;;;;11.16;77.91;100846.25;5054986;28;20031;-68
2021/10/05 03:22:28;;;;;;;3.63;1.50;;;;;;;11.08;78.40;100842.03;5054986;28;20048;-68
2021/10/05 03:24:53;;;;;;;5.05;1.60;;;;;;;11.09;78.40;100837.66;5036969;28;20028;-68
2021/10/05 03:27:18;;;;;;;4.13;1.73;;;;;;;11.17;77.75;100834.94;5054858;28;20406;-67
2021/10/05 03:29:43;;;;;;;4.85;1.48;;;;;;;11.15;78.01;100832.53;5055060;28;20047;-68
2021/10/05 03:32:09;;;;;;;5.15;1.52;;;;;;;11.12;78.12;100827.72;5054744;28;20017;-68
2021/10/05 03:34:34;;;;;;;4.47;1.65;;;;;;;11.16;77.87;100821.19;5036720;28;20029;-68
2021/10/05 03:37:00;;;;;;;5.25;1.55;;;;;;;11.21;77.94;100825.81;5036692;28;20062;-68
2021/10/05 03:39:25;;;;;;;4.97;1.77;;;;;;;11.15;77.62;100814.41;5054605;28;20158;-68
2021/10/05 03:41:51;;;;;;;4.95;1.38;;;;;;;11.23;77.64;100819.44;5054549;28;20024;-68
2021/10/05 03:44:16;;;;;;;5.10;1.73;;;;;;;11.15;77.80;100817.00;5054446;28;20501;-68
2021/10/05 03:46:41;;;;;;;5.88;1.70;;;;;;;11.28;77.57;100817.09;5054508;28;20024;-68
2021/10/05 03:49:07;;;;;;;5.95;1.90;;;;;;;11.23;77.63;100806.50;5054437;28;20031;-68
2021/10/05 03:51:32;;;;;;;6.78;1.48;;;;;;;11.26;77.45;100805.34;5054324;28;20380;-68
2021/10/05 03:53:57;;;;;;;3.28;1.42;;;;;;;11.24;77.67;100810.69;5054100;28;20052;-68
2021/10/05 03:56:23;;;;;;;4.60;1.38;;;;;;;11.28;77.83;100796.41;5054347;28;20021;-68
2021/10/05 03:58:48;;;;;;;2.70;1.23;;;;;;;11.33;77.69;100800.97;5054171;28;20104;-66
2021/10/05 04:01:13;;;;;;;6.00;1.70;;;;;;;11.26;77.85;100785.44;5036241;28;20116;-66
2021/10/05 04:03:39;;;;;;;4.45;1.50;;;;;;;11.35;77.35;100793.03;5054052;28;20021;-67
2021/10/05 04:06:05;;;;;;;5.95;1.40;;;;;;;11.28;77.91;100783.47;5036092;28;20075;-68
2021/10/05 04:08:30;;;;;;;6.25;1.52;;;;;;;11.26;77.72;100769.91;5054049;28;20483;-67
2021/10/05 04:10:57;;;;;;;5.60;1.60;;;;;;;11.30;77.62;100772.91;5054045;28;20024;-68
2021/10/05 04:13:22;;;;;;;5.00;1.73;;;;;;;11.31;77.79;100769.34;5053944;28;20025;-67
2021/10/05 04:15:47;;;;;;;5.90;1.60;;;;;;;11.31;77.83;100766.78;5053895;28;20029;-68
2021/10/05 04:18:13;;;;;;;7.70;1.55;;;;;;;11.27;78.14;100762.94;5053859;28;20089;-68
2021/10/05 04:20:38;;;;;;;4.60;1.42;;;;;;;11.36;78.01;100758.41;5054145;28;20021;-69
2021/10/05 04:23:03;;;;;;;4.22;1.80;;;;;;;11.36;78.01;100758.41;5035857;28;20082;-68
2021/10/05 04:25:28;;;;;;;3.47;1.55;;;;;;;11.41;77.83;100753.47;5035894;28;20044;-67
2021/10/05 04:27:54;;;;;;;5.70;1.58;;;;;;;11.45;77.35;100754.66;5053723;28;20021;-68
2021/10/05 04:30:19;;;;;;;3.08;1.45;;;;;;;11.44;77.51;100753.06;5053599;28;20025;-68
2021/10/05 04:32:45;;;;;;;6.35;1.33;;;;;;;11.43;77.73;100748.91;5054050;28;20029;-68
2021/10/05 04:35:10;;;;;;;4.30;1.50;;;;;;;11.45;77.55;100752.06;5053050;28;20114;-68
2021/10/05 04:37:35;;;;;;;5.95;1.77;;;;;;;11.44;77.51;100747.91;5035841;28;20032;-71
2021/10/05 04:40:01;;;;;;;8.30;1.63;;;;;;;11.44;77.54;100738.34;5053530;28;20021;-68
2021/10/05 04:42:26;;;;;;;7.68;1.42;;;;;;;11.48;77.60;100729.22;5035496;28;20260;-68
2021/10/05 04:44:51;;;;;;;7.15;1.60;;;;;;;11.45;77.64;100729.63;5053585;28;20029;-68
2021/10/05 04:47:17;;;;;;;6.22;1.40;;;;;;;11.48;77.55;100728.44;5053584;28;20028;-68
2021/10/05 04:49:42;;;;;;;4.60;1.60;;;;;;;11.39;78.05;100722.59;5053465;28;20082;-68
2021/10/05 04:52:07;;;;;;;5.20;1.63;;;;;;;11.41;78.12;100740.53;5053427;28;20035;-68
2021/10/05 04:54:33;;;;;;;4.85;1.45;;;;;;;11.42;77.88;100719.66;5053063;28;20552;-68
2021/10/05 04:56:58;;;;;;;2.15;1.23;;;;;;;11.46;77.53;100730.41;5035443;28;20380;-68
2021/10/05 04:59:24;;;;;;;3.17;1.42;;;;;;;11.43;78.10;100712.69;5053407;28;20123;-68
2021/10/05 05:01:49;;;;;;;6.90;1.52;;;;;;;11.36;78.34;100719.59;5035359;28;20053;-67
2021/10/05 05:04:16;;;;;;;4.80;1.42;;;;;;;11.33;78.56;100715.59;5035377;28;20062;-67
2021/10/05 05:06:42;;;;;;;4.13;1.40;;;;;;;11.30;78.52;100710.81;5035329;28;20025;-67
2021/10/05 05:09:08;;;;;;;2.33;1.40;;;;;;;11.29;78.54;100704.06;5035363;28;20032;-68
2021/10/05 05:11:33;;;;;;;5.55;1.45;;;;;;;11.24;78.58;100686.53;5053247;28;20028;-68
2021/10/05 05:14:05;;;;;;;4.03;1.30;;;;;;;11.23;78.69;100687.53;5053660;28;20025;-67
2021/10/05 05:16:30;;;;;;;4.20;1.30;;;;;;;11.26;78.69;100683.75;5053700;28;20428;-67
2021/10/05 05:18:55;;;;;;;4.82;1.58;;;;;;;11.19;79.21;100686.31;5053209;28;20057;-66
2021/10/05 05:21:21;;;;;;;4.78;1.50;;;;;;;11.16;79.02;100673.75;5053099;28;20468;-67
2021/10/05 05:23:46;;;;;;;2.78;1.33;;;;;;;11.22;78.88;100678.19;5057253;28;20056;-65
2021/10/05 05:26:11;;;;;;;7.18;1.55;;;;;;;11.17;79.33;100675.38;5035977;28;20167;-67
2021/10/05 05:28:36;;;;;;;4.75;1.70;;;;;;;11.18;79.00;100673.56;5035207;28;20021;-68
2021/10/05 05:31:02;;;;;;;4.57;1.60;;;;;;;11.18;79.02;100669.19;5053007;28;20474;-68
2021/10/05 05:33:27;;;;;;;4.40;1.70;;;;;;;11.10;79.38;100668.56;5053022;28;20021;-68
2021/10/05 05:35:52;;;;;;;6.18;1.90;;;;;;;11.11;79.19;100675.34;5053696;28;20032;-66
2021/10/05 05:38:18;;;;;;;8.70;1.60;;;;;;;11.07;79.55;100673.13;5053354;28;20472;-67
2021/10/05 05:40:44;;;;;;;6.22;1.65;;;;;;;11.07;79.39;100664.56;5035096;28;20025;-67
2021/10/05 05:43:09;;;;;;;5.40;1.70;;;;;;;11.03;79.28;100674.50;5034921;28;20059;-66
2021/10/05 05:45:35;;;;;;;6.82;1.80;;;;;;;11.06;79.17;100673.34;5053137;28;20020;-66
2021/10/05 05:48:00;;;;;;;13.13;2.38;;;;;;;11.00;79.86;100663.75;5037976;28;20533;-67
2021/10/05 05:50:26;;;;;;;9.15;1.67;;;;;;;11.06;79.60;100660.41;5056720;28;20036;-67
2021/10/05 05:52:51;;;;;;;4.32;1.70;;;;;;;10.97;79.79;100657.19;5038674;28;20356;-67
2021/10/05 05:55:17;;;;;;;2.90;1.52;;;;;;;11.07;79.23;100655.03;5056510;28;20052;-67
2021/10/05 05:57:45;;;;;;;7.13;1.90;;;;;;;11.01;79.53;100648.03;5056551;28;20024;-67
2021/10/05 06:00:11;;;;;;;6.07;1.63;;;;;;;11.00;79.55;100649.03;5056513;28;20099;-67
2021/10/05 06:02:36;;;;;;;4.25;1.60;;;;;;;11.06;79.45;100642.28;5056647;28;20116;-67
2021/10/05 06:05:01;;;;;;;4.82;1.80;;;;;;;11.06;79.23;100637.91;5038485;28;20031;-66
2021/10/05 06:07:27;;;;;;;5.57;1.80;;;;;;;11.03;79.52;100629.75;5056299;28;20376;-66
2021/10/05 06:09:52;;;;;;;5.47;2.78;;;;;;;11.04;79.42;100637.31;5056403;28;20021;-67
2021/10/05 06:12:20;;;;;;;3.15;1.50;;;;;;;11.00;79.42;100641.28;5039442;28;20021;-67
2021/10/05 06:14:46;;;;;;;6.43;1.80;;;;;;;10.98;79.55;100643.25;5063608;28;20024;-70
2021/10/05 06:17:11;;;;;;;4.93;1.77;;;;;;;11.01;79.53;100637.69;5038232;28;20025;-65
2021/10/05 06:19:37;;;;;;;4.07;1.80;;;;;;;11.05;79.37;100635.53;5058272;28;20057;-67
2021/10/05 06:22:02;;;;;;;6.82;1.90;;;;;;;11.12;79.25;100627.81;5056068;28;20043;-67
2021/10/05 06:24:28;;;;;;;4.78;1.80;;;;;;;11.24;78.54;100627.03;5056038;28;20108;-68
2021/10/05 06:26:53;;;;;;;3.47;1.70;;;;;;;11.21;78.68;100637.75;5055921;28;20056;-67
2021/10/05 06:29:19;;;;;;;11.57;2.30;;;;;;;11.12;79.00;100631.19;5056092;28;20025;-68
2021/10/05 06:31:44;;;;;;;7.32;1.92;;;;;;;11.25;78.43;100626.06;5055770;28;20475;-66
2021/10/05 06:34:09;;;;;;;2.20;1.40;;;;;;;11.19;78.68;100629.44;5055909;28;20029;-67
2021/10/05 06:36:34;;;;;;;7.32;1.88;;;;;;;11.23;78.70;100622.06;5056153;28;20109;-68
2021/10/05 06:39:00;;;;;;;5.35;2.08;;;;;;;11.21;78.95;100626.63;5055727;28;20033;-67
2021/10/05 06:41:25;;;;;;;6.65;2.28;;;;;;;11.25;78.53;100625.25;5055800;28;20025;-67
2021/10/05 06:43:51;;;;;;;5.72;2.25;;;;;;;11.33;78.21;100617.31;5055573;28;20025;-67
2021/10/05 06:46:16;;;;;;;6.47;2.10;;;;;;;11.32;78.50;100618.31;5055611;28;20044;-67
2021/10/05 06:48:42;;;;;;;6.70;2.10;;;;;;;11.41;78.49;100621.50;5055872;28;20025;-67
2021/10/05 06:51:07;;;;;;;7.93;2.38;;;;;;;11.39;78.39;100615.72;5055516;28;20033;-67
2021/10/05 06:53:32;;;;;;;5.25;1.73;;;;;;;11.45;77.90;100602.00;5055544;28;20093;-67
2021/10/05 06:55:58;;;;;;;5.43;1.77;;;;;;;11.51;77.86;100614.19;5055618;28;20020;-67
2021/10/05 06:58:23;;;;;;;5.78;2.08;;;;;;;11.71;77.88;100614.19;5054907;28;20480;-65
2021/10/05 07:00:48;;;;;;;2.80;1.90;;;;;;;11.85;76.66;100602.03;5037446;28;20384;-65
2021/10/05 07:03:14;;;;;;;5.25;1.65;;;;;;;12.00;77.16;100604.44;5055144;28;20029;-65
2021/10/05 07:05:39;;;;;;;6.68;2.00;;;;;;;11.95;76.24;100597.28;5055315;28;20028;-65
2021/10/05 07:08:09;;;;;;;5.38;2.00;;;;;;;11.91;76.13;100590.91;5055142;28;20086;-66
2021/10/05 07:10:35;;;;;;;7.80;1.70;;;;;;;11.90;76.40;100589.31;5055271;28;20025;-66
2021/10/05 07:13:01;;;;;;;3.22;1.95;;;;;;;11.96;75.95;100583.34;5055050;28;20472;-66
2021/10/05 07:15:26;;;;;;;5.05;1.90;;;;;;;11.98;75.50;100580.56;5037945;28;20051;-65
2021/10/05 07:17:53;;;;;;;5.85;1.83;;;;;;;12.07;75.90;100582.72;5039247;28;20420;-66
2021/10/05 07:20:19;;;;;;;5.35;1.80;;;;;;;12.20;75.39;100581.94;5055241;28;20025;-66
2021/10/05 07:22:44;;;;;;;6.38;1.70;;;;;;;12.85;72.69;100574.13;5054844;28;20116;-66
2021/10/05 07:25:09;;;;;;;6.78;2.00;;;;;;;13.94;68.58;100578.22;5055759;28;20020;-67
2021/10/05 07:27:35;;;;;;;5.88;2.10;;;;;;;14.18;67.64;100573.19;5055357;28;20028;-68
2021/10/05 07:30:03;;;;;;;4.82;2.05;;;;;;;13.27;70.84;100562.38;5056025;28;20049;-66
2021/10/05 07:32:29;;;;;;;5.25;2.03;;;;;;;14.29;67.18;100563.91;5037499;28;20036;-66
2021/10/05 07:34:54;;;;;;;6.38;1.60;;;;;;;14.95;65.11;100551.94;5054890;28;20158;-65
2021/10/05 07:37:19;;;;;;;6.35;1.73;;;;;;;14.46;66.42;100544.13;5054604;28;20031;-65
2021/10/05 07:39:44;;;;;;;4.90;2.00;;;;;;;13.64;69.43;100548.75;5054772;28;20516;-66
2021/10/05 07:42:10;;;;;;;8.38;2.10;;;;;;;14.37;67.58;100543.63;5055109;28;20036;-66
2021/10/05 07:44:35;;;;;;;6.15;1.80;;;;;;;14.82;65.93;100530.28;5055262;28;20032;-67
2021/10/05 07:47:01;;;;;;;5.13;1.63;;;;;;;16.83;59.21;100544.09;5054488;28;20021;-66
2021/10/05 07:49:26;;;;;;;7.93;1.80;;;;;;;18.86;53.83;100527.06;5054425;28;20078;-66
2021/10/05 07:51:53;;;;;;;9.13;1.92;;;;;;;21.84;45.02;100543.59;5054282;28;20021;-67
2021/10/05 07:54:18;;;;;;;4.70;1.65;;;;;;;21.78;43.94;100541.22;5054091;28;20049;-67
2021/10/05 08:00:06;;;;;;;4.60;1.63;;;;;;;21.77;44.45;100529.16;5054454;28;20036;-67
2021/10/05 08:02:32;;;;;;;3.58;1.65;;;;;;;22.53;42.00;100505.16;5054035;28;20115;-68
2021/10/05 08:04:58;;;;;;;4.10;1.60;;;;;;;21.65;44.42;100516.28;5054258;28;20064;-67
2021/10/05 08:07:26;;;;;;;5.68;2.28;;;;;;;23.75;39.68;100497.28;5053898;28;20279;-67
2021/10/05 08:09:53;;;;;;;4.35;1.52;;;;;;;23.28;40.59;100503.28;5053103;28;20181;-67
2021/10/05 08:12:18;;;;;;;6.93;1.92;;;;;;;23.65;39.71;100503.44;5054283;28;20025;-67
2021/10/05 08:14:43;;;;;;;4.75;1.55;;;;;;;23.68;40.12;100502.09;5054123;28;20028;-67
2021/10/05 08:17:08;;;;;;;4.22;1.60;;;;;;;24.40;38.66;100490.63;5035901;28;20028;-67
2021/10/05 08:19:34;;;;;;;4.03;1.50;;;;;;;25.70;36.02;100489.03;5054067;28;20028;-68
2021/10/05 08:21:59;;;;;;;4.10;1.50;;;;;;;24.28;37.98;100496.34;5053785;28;20703;-68
2021/10/05 08:24:25;;;;;;;3.40;1.40;;;;;;;24.28;38.28;100475.22;5035858;28;20024;-68
2021/10/05 08:26:51;;;;;;;5.68;1.80;;;;;;;24.32;38.31;100478.88;5053677;28;20029;-68
2021/10/05 08:29:18;;;;;;;5.40;1.70;;;;;;;26.05;35.49;100466.34;5053672;28;20033;-68
2021/10/05 08:31:44;;;;;;;4.93;1.30;;;;;;;24.68;37.21;100467.78;5053647;28;20083;-68
2021/10/05 08:34:09;;;;;;;3.80;1.77;;;;;;;24.98;37.20;100455.94;5035636;28;20025;-67
2021/10/05 08:36:35;;;;;;;4.13;1.30;;;;;;;26.17;34.72;100456.00;5053766;28;20028;-68
2021/10/05 08:39:00;;;;;;;4.57;1.40;;;;;;;26.10;35.25;100445.06;5053535;28;20390;-67
2021/10/05 08:41:26;;;;;;;3.30;1.50;;;;;;;26.33;34.93;100441.34;5054075;28;20037;-69
2021/10/05 08:43:51;;;;;;;7.93;1.80;;;;;;;27.51;33.18;100445.56;5035525;28;20031;-71
2021/10/05 08:46:16;;;;;;;5.77;1.40;;;;;;;26.29;34.23;100453.59;5035571;28;20064;-70
2021/10/05 08:48:42;;;;;;;7.25;1.70;;;;;;;26.62;33.83;100426.13;5053388;28;20271;-69
2021/10/05 08:51:08;;;;;;;5.55;1.40;;;;;;;24.46;37.56;100426.16;5053350;28;20037;-72
2021/10/05 08:53:36;;;;;;;8.40;1.35;;;;;;;23.66;39.57;100419.81;5053211;28;20045;-69
2021/10/05 08:56:03;;;;;;;3.05;1.25;;;;;;;24.90;37.54;100414.31;5053346;28;20052;-69
2021/10/05 08:58:28;;;;;;;3.72;1.45;;;;;;;25.39;36.72;100420.84;5053253;28;20064;-68
2021/10/05 09:00:53;;;;;;;4.80;1.50;;;;;;;24.06;38.68;100405.31;5053193;28;20029;-70
2021/10/05 09:03:24;;;;;;;4.43;1.55;;;;;;;25.28;37.05;100407.03;5053162;28;20029;-71
2021/10/05 09:05:49;;;;;;;4.72;1.42;;;;;;;27.56;32.93;100392.31;5053185;28;20420;-71
2021/10/05 09:08:23;;;;;;;7.47;1.60;;;;;;;27.13;32.99;100380.53;5035257;28;20053;-70
2021/10/05 09:10:52;;;;;;;4.30;1.55;;;;;;;26.26;34.60;100387.22;5035415;28;20055;-70
2021/10/05 09:13:32;;;;;;;3.67;1.33;;;;;;;26.09;35.51;100385.22;5053228;28;20032;-70
2021/10/05 09:16:00;;;;;;;3.55;1.20;;;;;;;27.04;33.47;100373.63;5035503;28;20029;-71
2021/10/05 09:18:26;;;;;;;4.38;1.40;;;;;;;27.08;32.77;100378.00;5036630;28;20036;-70
2021/10/05 09:20:51;;;;;;;6.28;1.55;;;;;;;26.68;33.63;100396.56;5054388;28;20029;-69
2021/10/05 09:23:17;;;;;;;3.80;1.37;;;;;;;26.05;34.98;100368.41;5057263;28;20083;-69
2021/10/05 09:25:47;;;;;;;4.13;1.42;;;;;;;25.05;36.18;100389.47;5039436;28;20306;-69
2021/10/05 09:28:13;;;;;;;3.83;1.48;;;;;;;24.41;37.72;100358.31;5057311;28;20021;-70
2021/10/05 09:30:40;;;;;;;3.72;1.50;;;;;;;26.25;34.86;100351.25;5057344;28;20025;-69
2021/10/05 09:33:06;;;;;;;6.45;1.50;;;;;;;27.84;32.08;100335.22;5057177;28;20032;-69
2021/10/05 09:35:45;;;;;;;3.17;1.42;;;;;;;24.71;36.82;100341.16;5057273;28;20116;-71
2021/10/05 09:38:21;;;;;;;5.25;1.35;;;;;;;26.96;33.65;100338.81;5057233;28;20059;-67
2021/10/05 09:44:09;;;;;;;3.13;1.40;;;;;;;25.19;36.53;100343.47;5056922;28;20040;-69
2021/10/05 09:46:35;;;;;;;5.53;1.45;;;;;;;25.10;36.86;100345.22;5056955;28;20075;-69
2021/10/05 09:49:06;;;;;;;5.13;1.42;;;;;;;23.83;38.93;100338.34;5056653;28;20025;-68
2021/10/05 09:51:33;;;;;;;4.90;1.50;;;;;;;22.41;41.70;100333.59;5057057;28;20029;-69
2021/10/05 09:53:58;;;;;;;5.22;1.60;;;;;;;22.98;41.54;100332.00;5056487;28;20041;-72
2021/10/05 09:56:26;;;;;;;4.70;1.48;;;;;;;24.36;38.77;100336.50;5038652;28;20025;-70
2021/10/05 09:58:53;;;;;;;2.67;1.55;;;;;;;23.91;39.56;100325.56;5038947;28;20460;-68
2021/10/05 10:01:20;;;;;;;5.60;1.50;;;;;;;22.14;43.55;100331.41;5056521;28;20055;-70
2021/10/05 10:03:51;;;;;;;5.57;1.40;;;;;;;20.17;48.96;100327.25;5056323;28;20060;-69
2021/10/05 10:06:18;;;;;;;4.97;1.27;;;;;;;19.34;52.22;100330.72;5056776;28;20079;-69
2021/10/05 10:08:49;;;;;;;5.35;1.60;;;;;;;18.61;53.63;100320.03;5039987;28;20063;-68
2021/10/05 10:11:15;;;;;;;5.35;1.50;;;;;;;19.07;53.02;100325.59;5056345;28;20052;-67
2021/10/05 10:13:43;;;;;;;7.95;1.70;;;;;;;18.52;53.93;100324.94;5056229;28;20024;-72
2021/10/05 10:16:09;;;;;;;4.00;1.60;;;;;;;18.15;55.59;100328.31;5056154;28;20108;-69
2021/10/05 10:18:34;;;;;;;3.65;1.30;;;;;;;17.75;56.76;100334.69;5056201;28;20063;-65
2021/10/05 10:21:09;;;;;;;5.53;1.63;;;;;;;18.17;55.82;100326.25;5055968;28;20029;-67
2021/10/05 10:23:36;;;;;;;3.90;1.52;;;;;;;18.47;55.09;100328.34;5037927;28;20498;-68
2021/10/05 10:26:07;;;;;;;4.63;1.77;;;;;;;18.53;55.17;100310.03;5056000;28;20027;-70
2021/10/05 10:28:37;;;;;;;6.28;1.75;;;;;;;18.39;55.10;100294.78;5037994;28;20490;-71
2021/10/05 10:31:16;;;;;;;4.10;1.60;;;;;;;18.46;54.96;100295.34;5037936;28;20025;-70
2021/10/05 10:33:46;;;;;;;8.02;2.00;;;;;;;18.44;55.04;100289.59;5055149;28;20464;-70
2021/10/05 10:36:13;;;;;;;10.13;1.90;;;;;;;17.88;56.73;100286.50;5055870;28;20028;-69
2021/10/05 10:38:42;;;;;;;5.25;1.75;;;;;;;17.94;57.13;100280.28;5055999;28;20028;-68
2021/10/05 10:41:18;;;;;;;4.90;1.60;;;;;;;18.38;56.10;100295.03;5055968;28;20379;-69
2021/10/05 10:44:00;;;;;;;4.15;1.50;;;;;;;19.12;53.91;100286.34;5055600;28;20021;-69
2021/10/05 10:46:29;;;;;;;3.78;1.58;;;;;;;18.75;55.28;100276.72;5055674;28;20382;-70
2021/10/05 10:48:56;;;;;;;4.05;1.80;;;;;;;17.95;57.21;100292.34;5055622;28;20021;-69
2021/10/05 10:51:29;;;;;;;4.53;1.70;;;;;;;17.80;57.96;100290.34;5055437;28;20032;-69
2021/10/05 10:54:00;;;;;;;4.20;1.70;;;;;;;17.22;59.93;100268.25;5055672;28;20053;-68
2021/10/05 10:56:34;;;;;;;6.22;1.80;;;;;;;16.89;61.07;100264.72;5055404;28;20047;-70
2021/10/05 10:59:06;;;;;;;7.30;1.92;;;;;;;16.73;61.33;100272.56;5055895;28;20108;-67
2021/10/05 11:01:45;;;;;;;7.90;1.73;;;;;;;16.79;61.82;100279.44;5037457;28;20021;-69
2021/10/05 11:04:12;;;;;;;6.90;1.50;;;;;;;16.63;62.20;100249.69;5055862;28;20017;-68
2021/10/05 11:06:38;;;;;;;7.00;1.80;;;;;;;16.77;61.98;100258.00;5056014;28;20017;-70
2021/10/05 11:09:06;;;;;;;7.47;1.85;;;;;;;16.52;63.49;100261.03;5055148;28;20078;-68
2021/10/05 11:11:38;;;;;;;7.40;1.60;;;;;;;16.78;62.58;100260.41;5055249;28;20058;-69
2021/10/05 11:14:08;;;;;;;3.50;1.50;;;;;;;16.38;63.80;100248.31;5055233;28;20031;-68
2021/10/05 11:16:36;;;;;;;5.40;1.60;;;;;;;16.21;64.11;100265.78;5037098;28;20150;-68
2021/10/05 11:19:04;;;;;;;5.10;1.50;;;;;;;16.21;64.52;100257.97;5055000;28;20546;-71
2021/10/05 11:21:31;;;;;;;9.18;1.80;;;;;;;16.37;64.09;100236.31;5055116;28;20017;-68
2021/10/05 11:23:56;;;;;;;4.45;1.35;;;;;;;16.51;63.76;100223.72;5055049;28;20033;-69
2021/10/05 11:26:33;;;;;;;7.00;1.38;;;;;;;16.60;63.69;100235.34;5038250;28;20474;-70
2021/10/05 11:29:02;;;;;;;4.43;1.33;;;;;;;16.78;62.84;100230.91;5054932;28;20100;-68